Archival Weather

Fayette Rgnl Air Cntr Arp

Fayette Rgnl Air Cntr Arp, Texas (K3T5)

Report from: Thursday, September 22, 2022 1:15 AM CDT
Current time: Friday, February 3, 2023 11:59 PM CST

Current weather
Weather history
Weather forecast

Temperature24.2°C (75.6°F)
Dew point21.8°C (71.2°F)
Winds Calm
Visibility10 mi. (16.1 km)
Clouds Sky clear
Altimeter29.98 in.Hg (1015 mB)
Relative humidity87 %
Density altitude1,352 ft. (412 m)
Remarks Fully automated report
Automated weather observing station with precipitation discriminator
Flight conditions Visual Meteorological Conditions
Raw dataK3T5 220615Z AUTO 00000KT 10SM CLR 24/22 A2998 RMK AO2 T02420218
An unhandled exception has occurred. See browser dev tools for details. Reload 🗙